createdAt,value
2023-05-10T00:01:45.882Z,0.00
2023-05-10T00:11:46.368Z,0.00
2023-05-10T00:21:46.958Z,0.00
2023-05-10T00:31:47.536Z,0.00
2023-05-10T00:41:48.163Z,0.00
2023-05-10T00:51:48.650Z,0.00
2023-05-10T01:01:49.268Z,0.00
2023-05-10T01:11:49.787Z,0.00
2023-05-10T01:21:50.353Z,0.00
2023-05-10T01:31:50.913Z,0.00
2023-05-10T01:41:51.480Z,0.00
2023-05-10T01:51:52.142Z,0.00
2023-05-10T02:01:52.721Z,0.00
2023-05-10T02:11:53.246Z,0.00
2023-05-10T02:21:53.814Z,0.00
2023-05-10T02:31:54.360Z,0.00
2023-05-10T02:41:54.857Z,1.00
2023-05-10T02:51:55.338Z,8.00
2023-05-10T03:01:55.988Z,3.00
2023-05-10T03:11:56.483Z,10.00
2023-05-10T03:21:56.998Z,26.00
2023-05-10T03:31:57.483Z,77.00
2023-05-10T03:41:57.975Z,224.00
2023-05-10T03:51:58.440Z,391.00
2023-05-10T04:01:59.049Z,531.00
2023-05-10T04:11:59.486Z,655.00
2023-05-10T04:22:07.015Z,774.00
2023-05-10T04:32:00.460Z,893.00
2023-05-10T04:42:00.983Z,1047.00
2023-05-10T04:52:01.518Z,446.00
2023-05-10T05:02:02.072Z,2692.00
2023-05-10T05:12:02.659Z,2870.00
2023-05-10T05:22:03.210Z,3334.00
2023-05-10T05:32:03.826Z,3600.00
2023-05-10T05:42:04.443Z,3967.00
2023-05-10T05:52:04.909Z,2747.00
2023-05-10T06:02:05.469Z,1921.00
2023-05-10T06:12:05.923Z,1768.00
2023-05-10T06:22:06.578Z,2061.00
2023-05-10T06:32:07.047Z,1985.00
2023-05-10T06:42:07.548Z,1934.00
2023-05-10T06:52:08.042Z,1960.00
2023-05-10T07:02:09.145Z,2107.00
2023-05-10T07:12:11.111Z,2252.00
2023-05-10T07:22:09.663Z,2153.00
2023-05-10T07:32:10.194Z,2689.00
2023-05-10T07:42:10.707Z,2799.00
2023-05-10T07:52:11.328Z,2810.00
2023-05-10T08:02:11.965Z,2873.00
2023-05-10T08:12:12.419Z,3161.00
2023-05-10T08:22:12.942Z,3477.00
2023-05-10T08:32:13.454Z,3729.00
2023-05-10T08:42:14.080Z,3427.00
2023-05-10T08:52:21.545Z,4101.00
2023-05-10T09:02:17.282Z,4364.00
2023-05-10T09:12:15.723Z,4329.00
2023-05-10T09:22:16.146Z,4410.00
2023-05-10T09:32:16.617Z,4931.00
2023-05-10T09:42:17.125Z,4893.00
2023-05-10T09:52:17.613Z,5039.00
2023-05-10T10:02:18.127Z,5360.00
2023-05-10T10:12:18.679Z,5425.00
2023-05-10T10:22:26.151Z,5758.00
2023-05-10T10:32:19.617Z,5560.00
2023-05-10T10:42:20.171Z,5898.00
2023-05-10T10:52:20.646Z,5918.00
2023-05-10T11:02:21.190Z,6020.00
2023-05-10T11:12:21.614Z,6177.00
2023-05-10T11:22:22.153Z,6144.00
2023-05-10T11:32:22.686Z,6271.00
2023-05-10T11:42:23.166Z,6051.00
2023-05-10T11:52:23.625Z,6575.00
2023-05-10T12:02:24.206Z,6301.00
2023-05-10T12:12:24.728Z,6044.00
2023-05-10T12:22:25.232Z,6430.00
2023-05-10T12:32:25.754Z,6196.00
2023-05-10T12:42:26.241Z,6167.00
2023-05-10T12:52:26.723Z,5909.00
2023-05-10T13:02:27.315Z,5727.00
2023-05-10T13:12:27.787Z,6064.00
2023-05-10T13:22:39.162Z,5812.00
2023-05-10T13:32:30.179Z,5437.00
2023-05-10T13:42:29.674Z,5327.00
2023-05-10T13:52:30.186Z,5365.00
2023-05-10T14:02:30.764Z,5067.00
2023-05-10T14:12:31.273Z,4923.00
2023-05-10T14:22:31.808Z,5256.00
2023-05-10T14:32:32.305Z,4676.00
2023-05-10T14:42:32.787Z,4500.00
2023-05-10T14:52:34.345Z,4342.00
2023-05-10T15:02:34.060Z,1271.00
2023-05-10T15:12:34.377Z,3567.00
2023-05-10T15:22:34.916Z,2523.00
2023-05-10T15:32:35.427Z,1718.00
2023-05-10T15:42:35.929Z,3198.00
2023-05-10T15:52:36.409Z,2490.00
2023-05-10T16:02:37.059Z,1909.00
2023-05-10T16:12:37.507Z,512.00
2023-05-10T16:22:38.027Z,2508.00
2023-05-10T16:32:38.548Z,2091.00
2023-05-10T16:42:39.019Z,1753.00
2023-05-10T16:52:39.494Z,1954.00
2023-05-10T17:02:40.095Z,1202.00
2023-05-10T17:12:47.662Z,921.00
2023-05-10T17:22:41.167Z,875.00
2023-05-10T17:32:41.720Z,778.00
2023-05-10T17:42:42.225Z,638.00
2023-05-10T17:52:42.901Z,511.00
2023-05-10T18:02:43.468Z,425.00
2023-05-10T18:12:43.953Z,342.00
2023-05-10T18:22:44.479Z,254.00
2023-05-10T18:32:45.012Z,169.00
2023-05-10T18:42:45.524Z,108.00
2023-05-10T18:52:46.069Z,65.00
2023-05-10T19:02:46.581Z,32.00
2023-05-10T19:12:47.138Z,10.00
2023-05-10T19:23:02.123Z,3.00
2023-05-10T19:32:49.080Z,1.00
2023-05-10T19:42:48.652Z,0.00
2023-05-10T19:52:49.341Z,0.00
2023-05-10T20:02:49.936Z,0.00
2023-05-10T20:12:50.546Z,0.00
2023-05-10T20:22:51.067Z,0.00
2023-05-10T20:32:51.658Z,0.00
2023-05-10T20:42:52.176Z,0.00
2023-05-10T20:52:52.724Z,0.00
2023-05-10T21:02:53.335Z,0.00
2023-05-10T21:12:53.864Z,0.00
2023-05-10T21:22:54.446Z,0.00
2023-05-10T21:32:55.032Z,0.00
2023-05-10T21:42:55.603Z,0.00
2023-05-10T21:52:56.135Z,0.00
2023-05-10T22:02:56.779Z,0.00
2023-05-10T22:12:57.371Z,0.00
2023-05-10T22:22:57.921Z,0.00
2023-05-10T22:32:58.521Z,0.00
2023-05-10T22:42:59.062Z,0.00
2023-05-10T22:52:59.587Z,0.00
2023-05-10T23:03:00.221Z,0.00
2023-05-10T23:13:07.730Z,0.00
2023-05-10T23:23:01.268Z,0.00
